sensor_id;sensor_type;location;lat;lon;timestamp;P1;durP1;ratioP1;P2;durP2;ratioP2
15858;SDS011;8029;52.202;7.308;2023-07-31T00:00:15;0.40;;;0.40;;
15858;SDS011;8029;52.202;7.308;2023-07-31T00:02:41;0.70;;;0.70;;
15858;SDS011;8029;52.202;7.308;2023-07-31T00:05:08;1.15;;;1.05;;
15858;SDS011;8029;52.202;7.308;2023-07-31T00:07:35;0.98;;;0.90;;
15858;SDS011;8029;52.202;7.308;2023-07-31T00:10:01;0.52;;;0.52;;
15858;SDS011;8029;52.202;7.308;2023-07-31T00:12:27;7.03;;;1.38;;
15858;SDS011;8029;52.202;7.308;2023-07-31T00:14:53;0.93;;;0.88;;
15858;SDS011;8029;52.202;7.308;2023-07-31T00:17:19;1.13;;;1.02;;
15858;SDS011;8029;52.202;7.308;2023-07-31T00:19:45;1.02;;;1.02;;
15858;SDS011;8029;52.202;7.308;2023-07-31T00:22:14;1.33;;;1.23;;
15858;SDS011;8029;52.202;7.308;2023-07-31T00:24:40;1.48;;;1.23;;
15858;SDS011;8029;52.202;7.308;2023-07-31T00:27:05;0.55;;;0.55;;
15858;SDS011;8029;52.202;7.308;2023-07-31T00:29:31;0.88;;;0.55;;
15858;SDS011;8029;52.202;7.308;2023-07-31T00:31:57;1.38;;;1.27;;
15858;SDS011;8029;52.202;7.308;2023-07-31T00:34:23;0.70;;;0.70;;
15858;SDS011;8029;52.202;7.308;2023-07-31T00:36:49;0.98;;;0.90;;
15858;SDS011;8029;52.202;7.308;2023-07-31T00:39:15;1.23;;;1.13;;
15858;SDS011;8029;52.202;7.308;2023-07-31T00:41:41;1.13;;;1.13;;
15858;SDS011;8029;52.202;7.308;2023-07-31T00:44:07;0.82;;;0.82;;
15858;SDS011;8029;52.202;7.308;2023-07-31T00:46:33;1.70;;;1.20;;
15858;SDS011;8029;52.202;7.308;2023-07-31T00:48:59;0.73;;;0.73;;
15858;SDS011;8029;52.202;7.308;2023-07-31T00:51:25;1.42;;;1.00;;
15858;SDS011;8029;52.202;7.308;2023-07-31T00:53:51;0.88;;;0.88;;
15858;SDS011;8029;52.202;7.308;2023-07-31T00:56:19;2.78;;;1.60;;
15858;SDS011;8029;52.202;7.308;2023-07-31T00:58:45;4.47;;;1.90;;
15858;SDS011;8029;52.202;7.308;2023-07-31T01:01:11;0.65;;;0.65;;
15858;SDS011;8029;52.202;7.308;2023-07-31T01:03:37;0.63;;;0.55;;
15858;SDS011;8029;52.202;7.308;2023-07-31T01:06:09;0.68;;;0.68;;
15858;SDS011;8029;52.202;7.308;2023-07-31T01:11:25;0.82;;;0.82;;
15858;SDS011;8029;52.202;7.308;2023-07-31T01:13:48;1.33;;;0.60;;
15858;SDS011;8029;52.202;7.308;2023-07-31T01:16:14;1.33;;;1.15;;
15858;SDS011;8029;52.202;7.308;2023-07-31T01:18:40;0.85;;;0.85;;
15858;SDS011;8029;52.202;7.308;2023-07-31T01:21:56;0.68;;;0.68;;
15858;SDS011;8029;52.202;7.308;2023-07-31T01:24:00;0.75;;;0.75;;
15858;SDS011;8029;52.202;7.308;2023-07-31T01:26:33;0.63;;;0.63;;
15858;SDS011;8029;52.202;7.308;2023-07-31T01:29:23;0.70;;;0.70;;
15858;SDS011;8029;52.202;7.308;2023-07-31T01:31:46;0.57;;;0.57;;
15858;SDS011;8029;52.202;7.308;2023-07-31T01:34:14;0.50;;;0.50;;
15858;SDS011;8029;52.202;7.308;2023-07-31T01:36:43;0.60;;;0.60;;
15858;SDS011;8029;52.202;7.308;2023-07-31T01:39:09;0.40;;;0.40;;
15858;SDS011;8029;52.202;7.308;2023-07-31T01:41:35;1.23;;;1.02;;
15858;SDS011;8029;52.202;7.308;2023-07-31T01:44:01;2.00;;;1.27;;
15858;SDS011;8029;52.202;7.308;2023-07-31T01:46:27;0.65;;;0.65;;
15858;SDS011;8029;52.202;7.308;2023-07-31T01:48:53;1.35;;;0.95;;
15858;SDS011;8029;52.202;7.308;2023-07-31T01:51:19;0.57;;;0.57;;
15858;SDS011;8029;52.202;7.308;2023-07-31T01:53:45;2.67;;;0.63;;
15858;SDS011;8029;52.202;7.308;2023-07-31T01:56:11;0.80;;;0.68;;
15858;SDS011;8029;52.202;7.308;2023-07-31T01:58:37;0.70;;;0.70;;
15858;SDS011;8029;52.202;7.308;2023-07-31T02:01:03;0.75;;;0.73;;
15858;SDS011;8029;52.202;7.308;2023-07-31T02:03:29;0.40;;;0.40;;
15858;SDS011;8029;52.202;7.308;2023-07-31T02:05:55;0.63;;;0.63;;
15858;SDS011;8029;52.202;7.308;2023-07-31T02:08:21;0.50;;;0.50;;
15858;SDS011;8029;52.202;7.308;2023-07-31T02:10:47;0.50;;;0.50;;
15858;SDS011;8029;52.202;7.308;2023-07-31T02:13:13;0.50;;;0.50;;
15858;SDS011;8029;52.202;7.308;2023-07-31T02:15:39;0.52;;;0.52;;
15858;SDS011;8029;52.202;7.308;2023-07-31T02:18:05;0.40;;;0.40;;
15858;SDS011;8029;52.202;7.308;2023-07-31T02:20:34;0.45;;;0.45;;
15858;SDS011;8029;52.202;7.308;2023-07-31T02:23:00;0.63;;;0.60;;
15858;SDS011;8029;52.202;7.308;2023-07-31T02:25:26;0.38;;;0.38;;
15858;SDS011;8029;52.202;7.308;2023-07-31T02:27:52;0.55;;;0.50;;
15858;SDS011;8029;52.202;7.308;2023-07-31T02:30:18;0.40;;;0.40;;
15858;SDS011;8029;52.202;7.308;2023-07-31T02:32:44;0.60;;;0.60;;
15858;SDS011;8029;52.202;7.308;2023-07-31T02:35:10;0.63;;;0.63;;
15858;SDS011;8029;52.202;7.308;2023-07-31T02:37:40;1.15;;;0.85;;
15858;SDS011;8029;52.202;7.308;2023-07-31T02:40:06;1.10;;;1.00;;
15858;SDS011;8029;52.202;7.308;2023-07-31T02:42:32;1.27;;;1.27;;
15858;SDS011;8029;52.202;7.308;2023-07-31T02:44:58;1.80;;;1.70;;
15858;SDS011;8029;52.202;7.308;2023-07-31T02:47:24;3.30;;;2.67;;
15858;SDS011;8029;52.202;7.308;2023-07-31T02:49:50;3.38;;;2.22;;
15858;SDS011;8029;52.202;7.308;2023-07-31T02:52:16;2.85;;;2.08;;
15858;SDS011;8029;52.202;7.308;2023-07-31T02:54:42;3.85;;;2.72;;
15858;SDS011;8029;52.202;7.308;2023-07-31T02:57:08;4.70;;;3.20;;
15858;SDS011;8029;52.202;7.308;2023-07-31T02:59:34;7.97;;;3.20;;
15858;SDS011;8029;52.202;7.308;2023-07-31T03:02:00;4.97;;;4.18;;
15858;SDS011;8029;52.202;7.308;2023-07-31T03:04:26;7.18;;;4.47;;
15858;SDS011;8029;52.202;7.308;2023-07-31T03:06:52;6.30;;;5.13;;
15858;SDS011;8029;52.202;7.308;2023-07-31T03:09:18;8.23;;;4.85;;
15858;SDS011;8029;52.202;7.308;2023-07-31T03:11:44;9.88;;;4.82;;
15858;SDS011;8029;52.202;7.308;2023-07-31T03:14:10;6.53;;;4.72;;
15858;SDS011;8029;52.202;7.308;2023-07-31T03:16:36;4.82;;;4.35;;
15858;SDS011;8029;52.202;7.308;2023-07-31T03:19:02;9.63;;;6.10;;
15858;SDS011;8029;52.202;7.308;2023-07-31T03:21:27;8.73;;;5.45;;
15858;SDS011;8029;52.202;7.308;2023-07-31T03:23:53;8.70;;;6.15;;
15858;SDS011;8029;52.202;7.308;2023-07-31T03:26:19;9.80;;;6.45;;
15858;SDS011;8029;52.202;7.308;2023-07-31T03:28:45;6.95;;;5.15;;
15858;SDS011;8029;52.202;7.308;2023-07-31T03:31:11;7.68;;;5.63;;
15858;SDS011;8029;52.202;7.308;2023-07-31T03:33:37;9.88;;;5.40;;
15858;SDS011;8029;52.202;7.308;2023-07-31T03:36:03;9.98;;;5.68;;
15858;SDS011;8029;52.202;7.308;2023-07-31T03:38:31;22.25;;;5.85;;
15858;SDS011;8029;52.202;7.308;2023-07-31T03:40:56;12.68;;;6.35;;
15858;SDS011;8029;52.202;7.308;2023-07-31T03:43:23;6.43;;;5.03;;
15858;SDS011;8029;52.202;7.308;2023-07-31T03:45:50;16.90;;;5.65;;
15858;SDS011;8029;52.202;7.308;2023-07-31T03:48:16;10.40;;;5.07;;
15858;SDS011;8029;52.202;7.308;2023-07-31T03:50:42;9.40;;;4.80;;
15858;SDS011;8029;52.202;7.308;2023-07-31T03:53:08;9.40;;;4.95;;
15858;SDS011;8029;52.202;7.308;2023-07-31T03:55:34;14.25;;;6.47;;
15858;SDS011;8029;52.202;7.308;2023-07-31T03:58:00;10.55;;;5.55;;
15858;SDS011;8029;52.202;7.308;2023-07-31T04:00:26;7.85;;;4.85;;
15858;SDS011;8029;52.202;7.308;2023-07-31T04:02:52;7.45;;;4.70;;
15858;SDS011;8029;52.202;7.308;2023-07-31T04:05:18;4.50;;;3.55;;
15858;SDS011;8029;52.202;7.308;2023-07-31T04:07:44;11.00;;;5.28;;
15858;SDS011;8029;52.202;7.308;2023-07-31T04:10:10;6.03;;;3.88;;
15858;SDS011;8029;52.202;7.308;2023-07-31T04:12:36;4.68;;;3.70;;
15858;SDS011;8029;52.202;7.308;2023-07-31T04:15:02;7.90;;;4.43;;
15858;SDS011;8029;52.202;7.308;2023-07-31T04:17:28;7.40;;;4.65;;
15858;SDS011;8029;52.202;7.308;2023-07-31T04:19:54;7.60;;;4.50;;
15858;SDS011;8029;52.202;7.308;2023-07-31T04:22:20;7.07;;;4.13;;
15858;SDS011;8029;52.202;7.308;2023-07-31T04:24:46;8.27;;;4.38;;
15858;SDS011;8029;52.202;7.308;2023-07-31T04:27:12;9.75;;;4.70;;
15858;SDS011;8029;52.202;7.308;2023-07-31T04:29:38;14.23;;;5.13;;
15858;SDS011;8029;52.202;7.308;2023-07-31T04:32:05;5.22;;;4.00;;
15858;SDS011;8029;52.202;7.308;2023-07-31T04:34:31;7.65;;;4.68;;
15858;SDS011;8029;52.202;7.308;2023-07-31T04:36:57;8.32;;;5.03;;
15858;SDS011;8029;52.202;7.308;2023-07-31T04:39:23;7.60;;;4.90;;
15858;SDS011;8029;52.202;7.308;2023-07-31T04:41:49;13.35;;;6.25;;
15858;SDS011;8029;52.202;7.308;2023-07-31T04:44:15;16.23;;;4.63;;
15858;SDS011;8029;52.202;7.308;2023-07-31T04:46:40;7.75;;;5.80;;
15858;SDS011;8029;52.202;7.308;2023-07-31T04:49:06;16.42;;;6.43;;
15858;SDS011;8029;52.202;7.308;2023-07-31T04:51:32;5.45;;;4.43;;
15858;SDS011;8029;52.202;7.308;2023-07-31T04:53:58;11.85;;;4.03;;
15858;SDS011;8029;52.202;7.308;2023-07-31T04:56:24;9.02;;;4.80;;
15858;SDS011;8029;52.202;7.308;2023-07-31T04:58:50;13.48;;;5.28;;
15858;SDS011;8029;52.202;7.308;2023-07-31T05:01:16;11.25;;;4.63;;
15858;SDS011;8029;52.202;7.308;2023-07-31T05:03:42;3.35;;;3.00;;
15858;SDS011;8029;52.202;7.308;2023-07-31T05:06:08;6.72;;;4.00;;
15858;SDS011;8029;52.202;7.308;2023-07-31T05:08:34;6.05;;;3.67;;
15858;SDS011;8029;52.202;7.308;2023-07-31T05:11:00;11.60;;;5.15;;
15858;SDS011;8029;52.202;7.308;2023-07-31T05:13:26;6.00;;;4.45;;
15858;SDS011;8029;52.202;7.308;2023-07-31T05:15:52;7.60;;;4.55;;
15858;SDS011;8029;52.202;7.308;2023-07-31T05:18:19;5.68;;;4.20;;
15858;SDS011;8029;52.202;7.308;2023-07-31T05:20:44;5.35;;;3.65;;
15858;SDS011;8029;52.202;7.308;2023-07-31T05:23:10;6.60;;;4.10;;
15858;SDS011;8029;52.202;7.308;2023-07-31T05:25:36;7.60;;;4.85;;
15858;SDS011;8029;52.202;7.308;2023-07-31T05:28:02;3.88;;;3.45;;
15858;SDS011;8029;52.202;7.308;2023-07-31T05:30:31;4.70;;;3.30;;
15858;SDS011;8029;52.202;7.308;2023-07-31T05:32:57;6.22;;;3.65;;
15858;SDS011;8029;52.202;7.308;2023-07-31T05:35:23;5.13;;;4.05;;
15858;SDS011;8029;52.202;7.308;2023-07-31T05:37:49;7.05;;;4.70;;
15858;SDS011;8029;52.202;7.308;2023-07-31T05:40:15;5.97;;;3.42;;
15858;SDS011;8029;52.202;7.308;2023-07-31T05:42:41;7.38;;;4.25;;
15858;SDS011;8029;52.202;7.308;2023-07-31T05:45:07;6.45;;;4.22;;
15858;SDS011;8029;52.202;7.308;2023-07-31T05:47:33;7.68;;;4.65;;
15858;SDS011;8029;52.202;7.308;2023-07-31T05:49:59;5.60;;;3.58;;
15858;SDS011;8029;52.202;7.308;2023-07-31T05:52:25;5.50;;;3.60;;
15858;SDS011;8029;52.202;7.308;2023-07-31T05:54:51;7.63;;;4.55;;
15858;SDS011;8029;52.202;7.308;2023-07-31T05:57:17;5.88;;;4.47;;
15858;SDS011;8029;52.202;7.308;2023-07-31T05:59:43;9.38;;;4.28;;
15858;SDS011;8029;52.202;7.308;2023-07-31T06:02:09;6.18;;;3.70;;
15858;SDS011;8029;52.202;7.308;2023-07-31T06:04:35;6.00;;;3.85;;
15858;SDS011;8029;52.202;7.308;2023-07-31T06:07:01;7.07;;;4.03;;
15858;SDS011;8029;52.202;7.308;2023-07-31T06:09:28;8.20;;;4.38;;
15858;SDS011;8029;52.202;7.308;2023-07-31T06:11:54;4.97;;;3.40;;
15858;SDS011;8029;52.202;7.308;2023-07-31T06:14:20;4.28;;;3.30;;
15858;SDS011;8029;52.202;7.308;2023-07-31T06:16:46;7.75;;;3.83;;
15858;SDS011;8029;52.202;7.308;2023-07-31T06:19:12;7.50;;;4.63;;
15858;SDS011;8029;52.202;7.308;2023-07-31T06:21:38;6.57;;;4.35;;
15858;SDS011;8029;52.202;7.308;2023-07-31T06:24:04;9.73;;;3.40;;
15858;SDS011;8029;52.202;7.308;2023-07-31T06:26:30;4.85;;;3.95;;
15858;SDS011;8029;52.202;7.308;2023-07-31T06:28:56;6.03;;;3.67;;
15858;SDS011;8029;52.202;7.308;2023-07-31T06:31:22;6.25;;;3.67;;
15858;SDS011;8029;52.202;7.308;2023-07-31T06:33:49;4.78;;;3.72;;
15858;SDS011;8029;52.202;7.308;2023-07-31T06:36:15;12.63;;;3.90;;
15858;SDS011;8029;52.202;7.308;2023-07-31T06:38:41;4.50;;;3.65;;
15858;SDS011;8029;52.202;7.308;2023-07-31T06:41:07;4.05;;;3.65;;
15858;SDS011;8029;52.202;7.308;2023-07-31T06:43:34;7.90;;;3.15;;
15858;SDS011;8029;52.202;7.308;2023-07-31T06:46:04;4.70;;;3.45;;
15858;SDS011;8029;52.202;7.308;2023-07-31T06:48:31;3.15;;;2.70;;
15858;SDS011;8029;52.202;7.308;2023-07-31T06:50:57;3.97;;;3.55;;
15858;SDS011;8029;52.202;7.308;2023-07-31T06:53:22;6.28;;;3.75;;
15858;SDS011;8029;52.202;7.308;2023-07-31T06:55:48;2.72;;;2.35;;
15858;SDS011;8029;52.202;7.308;2023-07-31T06:58:16;3.08;;;2.33;;
15858;SDS011;8029;52.202;7.308;2023-07-31T07:00:42;3.97;;;2.83;;
15858;SDS011;8029;52.202;7.308;2023-07-31T07:03:09;3.67;;;2.95;;
15858;SDS011;8029;52.202;7.308;2023-07-31T07:05:35;5.25;;;2.90;;
15858;SDS011;8029;52.202;7.308;2023-07-31T07:08:01;2.92;;;2.53;;
15858;SDS011;8029;52.202;7.308;2023-07-31T07:10:27;4.70;;;2.70;;
15858;SDS011;8029;52.202;7.308;2023-07-31T07:12:53;3.53;;;2.80;;
15858;SDS011;8029;52.202;7.308;2023-07-31T07:15:20;3.33;;;2.63;;
15858;SDS011;8029;52.202;7.308;2023-07-31T07:17:46;4.50;;;2.90;;
15858;SDS011;8029;52.202;7.308;2023-07-31T07:20:12;11.27;;;3.83;;
15858;SDS011;8029;52.202;7.308;2023-07-31T07:22:38;3.28;;;2.63;;
15858;SDS011;8029;52.202;7.308;2023-07-31T07:25:04;10.38;;;2.60;;
15858;SDS011;8029;52.202;7.308;2023-07-31T07:27:32;27.95;;;4.13;;
15858;SDS011;8029;52.202;7.308;2023-07-31T07:29:58;2.83;;;2.13;;
15858;SDS011;8029;52.202;7.308;2023-07-31T07:32:24;5.97;;;3.38;;
15858;SDS011;8029;52.202;7.308;2023-07-31T07:34:50;3.08;;;2.75;;
15858;SDS011;8029;52.202;7.308;2023-07-31T07:37:16;2.95;;;2.38;;
15858;SDS011;8029;52.202;7.308;2023-07-31T07:39:42;2.80;;;2.22;;
15858;SDS011;8029;52.202;7.308;2023-07-31T07:42:08;3.35;;;2.30;;
15858;SDS011;8029;52.202;7.308;2023-07-31T07:44:34;2.10;;;1.90;;
15858;SDS011;8029;52.202;7.308;2023-07-31T07:47:00;7.07;;;3.00;;
15858;SDS011;8029;52.202;7.308;2023-07-31T07:49:26;2.45;;;1.95;;
15858;SDS011;8029;52.202;7.308;2023-07-31T07:51:52;2.60;;;2.38;;
15858;SDS011;8029;52.202;7.308;2023-07-31T07:54:18;3.90;;;2.75;;
15858;SDS011;8029;52.202;7.308;2023-07-31T07:56:46;11.57;;;2.45;;
15858;SDS011;8029;52.202;7.308;2023-07-31T07:59:12;4.95;;;1.92;;
15858;SDS011;8029;52.202;7.308;2023-07-31T08:01:38;1.38;;;1.27;;
15858;SDS011;8029;52.202;7.308;2023-07-31T08:04:04;1.35;;;1.25;;
15858;SDS011;8029;52.202;7.308;2023-07-31T08:06:30;1.77;;;1.67;;
15858;SDS011;8029;52.202;7.308;2023-07-31T08:08:56;1.77;;;1.42;;
15858;SDS011;8029;52.202;7.308;2023-07-31T08:11:22;2.25;;;1.60;;
15858;SDS011;8029;52.202;7.308;2023-07-31T08:13:48;1.38;;;1.30;;
15858;SDS011;8029;52.202;7.308;2023-07-31T08:16:14;1.20;;;1.10;;
15858;SDS011;8029;52.202;7.308;2023-07-31T08:18:40;3.72;;;1.63;;
15858;SDS011;8029;52.202;7.308;2023-07-31T08:21:07;1.42;;;1.33;;
15858;SDS011;8029;52.202;7.308;2023-07-31T08:23:33;0.80;;;0.80;;
15858;SDS011;8029;52.202;7.308;2023-07-31T08:25:59;0.70;;;0.70;;
15858;SDS011;8029;52.202;7.308;2023-07-31T08:28:25;1.02;;;0.95;;
15858;SDS011;8029;52.202;7.308;2023-07-31T08:30:51;0.90;;;0.88;;
15858;SDS011;8029;52.202;7.308;2023-07-31T08:33:17;1.00;;;0.80;;
15858;SDS011;8029;52.202;7.308;2023-07-31T08:35:43;0.88;;;0.80;;
15858;SDS011;8029;52.202;7.308;2023-07-31T08:38:09;0.70;;;0.70;;
15858;SDS011;8029;52.202;7.308;2023-07-31T08:40:36;0.73;;;0.73;;
15858;SDS011;8029;52.202;7.308;2023-07-31T08:43:03;0.77;;;0.77;;
15858;SDS011;8029;52.202;7.308;2023-07-31T08:45:29;0.80;;;0.80;;
15858;SDS011;8029;52.202;7.308;2023-07-31T08:47:56;2.17;;;0.95;;
15858;SDS011;8029;52.202;7.308;2023-07-31T08:50:22;0.80;;;0.65;;
15858;SDS011;8029;52.202;7.308;2023-07-31T08:52:49;0.73;;;0.73;;
15858;SDS011;8029;52.202;7.308;2023-07-31T08:55:15;0.47;;;0.47;;
15858;SDS011;8029;52.202;7.308;2023-07-31T08:57:42;0.93;;;0.93;;
15858;SDS011;8029;52.202;7.308;2023-07-31T09:00:08;0.40;;;0.40;;
15858;SDS011;8029;52.202;7.308;2023-07-31T09:02:38;0.40;;;0.40;;
15858;SDS011;8029;52.202;7.308;2023-07-31T09:05:05;1.10;;;0.90;;
15858;SDS011;8029;52.202;7.308;2023-07-31T09:07:33;0.70;;;0.70;;
15858;SDS011;8029;52.202;7.308;2023-07-31T09:09:59;1.25;;;1.00;;
15858;SDS011;8029;52.202;7.308;2023-07-31T09:12:25;0.68;;;0.68;;
15858;SDS011;8029;52.202;7.308;2023-07-31T09:14:51;0.55;;;0.55;;
15858;SDS011;8029;52.202;7.308;2023-07-31T09:17:28;0.30;;;0.30;;
15858;SDS011;8029;52.202;7.308;2023-07-31T09:19:55;0.80;;;0.80;;
15858;SDS011;8029;52.202;7.308;2023-07-31T09:22:34;1.25;;;0.90;;
15858;SDS011;8029;52.202;7.308;2023-07-31T09:25:19;0.50;;;0.50;;
15858;SDS011;8029;52.202;7.308;2023-07-31T09:27:49;2.33;;;1.13;;
15858;SDS011;8029;52.202;7.308;2023-07-31T09:30:16;0.40;;;0.40;;
15858;SDS011;8029;52.202;7.308;2023-07-31T09:32:43;0.95;;;0.95;;
15858;SDS011;8029;52.202;7.308;2023-07-31T09:35:19;0.73;;;0.73;;
15858;SDS011;8029;52.202;7.308;2023-07-31T09:37:57;0.70;;;0.70;;
15858;SDS011;8029;52.202;7.308;2023-07-31T09:40:28;0.77;;;0.77;;
15858;SDS011;8029;52.202;7.308;2023-07-31T09:42:58;0.52;;;0.52;;
15858;SDS011;8029;52.202;7.308;2023-07-31T09:45:24;0.68;;;0.68;;
15858;SDS011;8029;52.202;7.308;2023-07-31T09:47:51;0.95;;;0.88;;
15858;SDS011;8029;52.202;7.308;2023-07-31T09:50:17;0.63;;;0.63;;
15858;SDS011;8029;52.202;7.308;2023-07-31T09:52:43;0.73;;;0.68;;
15858;SDS011;8029;52.202;7.308;2023-07-31T09:55:09;0.52;;;0.52;;
15858;SDS011;8029;52.202;7.308;2023-07-31T09:57:39;0.80;;;0.80;;
15858;SDS011;8029;52.202;7.308;2023-07-31T10:00:07;0.80;;;0.80;;
15858;SDS011;8029;52.202;7.308;2023-07-31T10:02:37;1.33;;;1.25;;
15858;SDS011;8029;52.202;7.308;2023-07-31T10:05:03;0.57;;;0.57;;
15858;SDS011;8029;52.202;7.308;2023-07-31T10:07:30;1.08;;;1.08;;
15858;SDS011;8029;52.202;7.308;2023-07-31T10:09:59;0.85;;;0.85;;
15858;SDS011;8029;52.202;7.308;2023-07-31T10:12:26;0.77;;;0.77;;
15858;SDS011;8029;52.202;7.308;2023-07-31T10:14:54;0.73;;;0.73;;
15858;SDS011;8029;52.202;7.308;2023-07-31T10:17:21;0.68;;;0.68;;
15858;SDS011;8029;52.202;7.308;2023-07-31T10:19:47;1.10;;;0.98;;
15858;SDS011;8029;52.202;7.308;2023-07-31T10:22:14;0.40;;;0.40;;
15858;SDS011;8029;52.202;7.308;2023-07-31T10:24:40;2.38;;;0.95;;
15858;SDS011;8029;52.202;7.308;2023-07-31T10:27:08;0.55;;;0.55;;
15858;SDS011;8029;52.202;7.308;2023-07-31T10:29:35;0.85;;;0.80;;
15858;SDS011;8029;52.202;7.308;2023-07-31T10:32:02;1.15;;;1.02;;
15858;SDS011;8029;52.202;7.308;2023-07-31T10:34:31;0.63;;;0.63;;
15858;SDS011;8029;52.202;7.308;2023-07-31T10:39:43;0.95;;;0.93;;
15858;SDS011;8029;52.202;7.308;2023-07-31T10:42:10;0.50;;;0.50;;
15858;SDS011;8029;52.202;7.308;2023-07-31T10:44:36;0.50;;;0.50;;
15858;SDS011;8029;52.202;7.308;2023-07-31T10:47:02;0.77;;;0.77;;
15858;SDS011;8029;52.202;7.308;2023-07-31T10:49:28;1.30;;;1.20;;
15858;SDS011;8029;52.202;7.308;2023-07-31T10:51:56;0.50;;;0.50;;
15858;SDS011;8029;52.202;7.308;2023-07-31T10:54:22;0.82;;;0.80;;
15858;SDS011;8029;52.202;7.308;2023-07-31T10:56:51;0.30;;;0.30;;
15858;SDS011;8029;52.202;7.308;2023-07-31T10:59:18;0.68;;;0.68;;
15858;SDS011;8029;52.202;7.308;2023-07-31T11:01:55;1.58;;;0.85;;
15858;SDS011;8029;52.202;7.308;2023-07-31T11:04:27;1.05;;;0.95;;
15858;SDS011;8029;52.202;7.308;2023-07-31T11:07:05;0.55;;;0.55;;
15858;SDS011;8029;52.202;7.308;2023-07-31T11:09:35;0.70;;;0.70;;
15858;SDS011;8029;52.202;7.308;2023-07-31T11:12:04;1.10;;;1.10;;
15858;SDS011;8029;52.202;7.308;2023-07-31T11:14:30;0.50;;;0.50;;
15858;SDS011;8029;52.202;7.308;2023-07-31T11:16:56;0.68;;;0.68;;
15858;SDS011;8029;52.202;7.308;2023-07-31T11:19:22;0.68;;;0.68;;
15858;SDS011;8029;52.202;7.308;2023-07-31T11:21:49;0.88;;;0.88;;
15858;SDS011;8029;52.202;7.308;2023-07-31T11:24:15;0.70;;;0.70;;
15858;SDS011;8029;52.202;7.308;2023-07-31T11:26:50;1.52;;;1.42;;
15858;SDS011;8029;52.202;7.308;2023-07-31T11:29:17;1.02;;;1.02;;
15858;SDS011;8029;52.202;7.308;2023-07-31T11:31:43;1.35;;;1.05;;
15858;SDS011;8029;52.202;7.308;2023-07-31T11:34:10;1.20;;;1.10;;
15858;SDS011;8029;52.202;7.308;2023-07-31T11:36:36;0.90;;;0.90;;
15858;SDS011;8029;52.202;7.308;2023-07-31T11:39:05;1.70;;;1.60;;
15858;SDS011;8029;52.202;7.308;2023-07-31T11:41:31;1.30;;;1.20;;
15858;SDS011;8029;52.202;7.308;2023-07-31T11:44:00;2.00;;;1.50;;
15858;SDS011;8029;52.202;7.308;2023-07-31T11:46:27;9.07;;;1.92;;
15858;SDS011;8029;52.202;7.308;2023-07-31T11:48:58;1.42;;;1.33;;
15858;SDS011;8029;52.202;7.308;2023-07-31T11:51:24;1.00;;;1.00;;
15858;SDS011;8029;52.202;7.308;2023-07-31T11:53:52;1.75;;;1.65;;
15858;SDS011;8029;52.202;7.308;2023-07-31T11:56:19;2.17;;;1.52;;
15858;SDS011;8029;52.202;7.308;2023-07-31T11:58:46;1.75;;;1.65;;
15858;SDS011;8029;52.202;7.308;2023-07-31T12:01:16;2.42;;;1.95;;
15858;SDS011;8029;52.202;7.308;2023-07-31T12:03:44;2.35;;;2.15;;
15858;SDS011;8029;52.202;7.308;2023-07-31T12:06:11;25.35;;;2.03;;
15858;SDS011;8029;52.202;7.308;2023-07-31T12:08:37;1.95;;;1.83;;
15858;SDS011;8029;52.202;7.308;2023-07-31T12:11:04;2.35;;;2.15;;
15858;SDS011;8029;52.202;7.308;2023-07-31T12:13:30;1.90;;;1.80;;
15858;SDS011;8029;52.202;7.308;2023-07-31T12:15:57;1.95;;;1.83;;
15858;SDS011;8029;52.202;7.308;2023-07-31T12:18:24;2.13;;;2.00;;
15858;SDS011;8029;52.202;7.308;2023-07-31T12:20:57;2.45;;;2.25;;
15858;SDS011;8029;52.202;7.308;2023-07-31T12:23:30;3.15;;;1.85;;
15858;SDS011;8029;52.202;7.308;2023-07-31T12:28:35;2.65;;;2.30;;
15858;SDS011;8029;52.202;7.308;2023-07-31T12:31:03;2.17;;;1.98;;
15858;SDS011;8029;52.202;7.308;2023-07-31T12:33:33;4.20;;;3.00;;
15858;SDS011;8029;52.202;7.308;2023-07-31T12:36:00;2.33;;;2.13;;
15858;SDS011;8029;52.202;7.308;2023-07-31T12:38:27;2.67;;;2.47;;
15858;SDS011;8029;52.202;7.308;2023-07-31T12:40:53;2.47;;;2.28;;
15858;SDS011;8029;52.202;7.308;2023-07-31T12:43:19;2.95;;;2.35;;
15858;SDS011;8029;52.202;7.308;2023-07-31T12:45:45;4.15;;;2.40;;
15858;SDS011;8029;52.202;7.308;2023-07-31T12:48:12;2.67;;;2.30;;
15858;SDS011;8029;52.202;7.308;2023-07-31T12:50:38;5.65;;;2.83;;
15858;SDS011;8029;52.202;7.308;2023-07-31T12:53:04;2.78;;;2.47;;
15858;SDS011;8029;52.202;7.308;2023-07-31T12:55:31;4.63;;;2.30;;
15858;SDS011;8029;52.202;7.308;2023-07-31T12:57:59;3.42;;;2.45;;
15858;SDS011;8029;52.202;7.308;2023-07-31T13:00:25;2.53;;;2.33;;
15858;SDS011;8029;52.202;7.308;2023-07-31T13:02:51;2.05;;;1.88;;
15858;SDS011;8029;52.202;7.308;2023-07-31T13:05:17;2.95;;;2.47;;
15858;SDS011;8029;52.202;7.308;2023-07-31T13:07:45;1.75;;;1.65;;
15858;SDS011;8029;52.202;7.308;2023-07-31T13:10:11;2.45;;;2.20;;
15858;SDS011;8029;52.202;7.308;2023-07-31T13:12:37;4.18;;;2.30;;
15858;SDS011;8029;52.202;7.308;2023-07-31T13:15:03;2.30;;;2.10;;
15858;SDS011;8029;52.202;7.308;2023-07-31T13:17:30;2.53;;;2.30;;
15858;SDS011;8029;52.202;7.308;2023-07-31T13:19:56;2.15;;;1.95;;
15858;SDS011;8029;52.202;7.308;2023-07-31T13:22:22;2.22;;;2.03;;
15858;SDS011;8029;52.202;7.308;2023-07-31T13:24:48;2.05;;;1.67;;
15858;SDS011;8029;52.202;7.308;2023-07-31T13:27:14;1.58;;;1.48;;
15858;SDS011;8029;52.202;7.308;2023-07-31T13:29:45;2.30;;;2.10;;
15858;SDS011;8029;52.202;7.308;2023-07-31T13:32:11;2.67;;;1.70;;
15858;SDS011;8029;52.202;7.308;2023-07-31T13:34:37;2.28;;;1.92;;
15858;SDS011;8029;52.202;7.308;2023-07-31T13:37:03;6.45;;;2.92;;
15858;SDS011;8029;52.202;7.308;2023-07-31T13:39:31;2.53;;;2.33;;
15858;SDS011;8029;52.202;7.308;2023-07-31T13:41:58;2.30;;;1.95;;
15858;SDS011;8029;52.202;7.308;2023-07-31T13:44:24;2.15;;;1.95;;
15858;SDS011;8029;52.202;7.308;2023-07-31T13:46:50;5.18;;;1.88;;
15858;SDS011;8029;52.202;7.308;2023-07-31T13:49:16;6.28;;;1.95;;
15858;SDS011;8029;52.202;7.308;2023-07-31T13:51:42;1.88;;;1.77;;
15858;SDS011;8029;52.202;7.308;2023-07-31T13:54:09;1.88;;;1.77;;
15858;SDS011;8029;52.202;7.308;2023-07-31T13:56:36;2.40;;;1.80;;
15858;SDS011;8029;52.202;7.308;2023-07-31T13:59:02;2.78;;;1.70;;
15858;SDS011;8029;52.202;7.308;2023-07-31T14:01:28;4.50;;;3.00;;
15858;SDS011;8029;52.202;7.308;2023-07-31T14:03:54;3.00;;;2.10;;
15858;SDS011;8029;52.202;7.308;2023-07-31T14:06:20;1.92;;;1.80;;
15858;SDS011;8029;52.202;7.308;2023-07-31T14:08:46;2.60;;;1.77;;
15858;SDS011;8029;52.202;7.308;2023-07-31T14:11:12;1.90;;;1.80;;
15858;SDS011;8029;52.202;7.308;2023-07-31T14:13:38;4.70;;;2.40;;
15858;SDS011;8029;52.202;7.308;2023-07-31T14:16:04;7.93;;;2.20;;
15858;SDS011;8029;52.202;7.308;2023-07-31T14:18:30;2.47;;;2.17;;
15858;SDS011;8029;52.202;7.308;2023-07-31T14:20:56;1.90;;;1.80;;
15858;SDS011;8029;52.202;7.308;2023-07-31T14:23:22;2.05;;;1.90;;
15858;SDS011;8029;52.202;7.308;2023-07-31T14:25:48;7.93;;;2.00;;
15858;SDS011;8029;52.202;7.308;2023-07-31T14:28:14;2.28;;;2.08;;
15858;SDS011;8029;52.202;7.308;2023-07-31T14:30:40;1.85;;;1.75;;
15858;SDS011;8029;52.202;7.308;2023-07-31T14:33:06;2.58;;;1.80;;
15858;SDS011;8029;52.202;7.308;2023-07-31T14:35:33;2.97;;;1.92;;
15858;SDS011;8029;52.202;7.308;2023-07-31T14:37:59;10.80;;;2.85;;
15858;SDS011;8029;52.202;7.308;2023-07-31T14:40:25;1.55;;;1.45;;
15858;SDS011;8029;52.202;7.308;2023-07-31T14:42:51;2.65;;;1.58;;
15858;SDS011;8029;52.202;7.308;2023-07-31T14:45:17;1.85;;;1.75;;
15858;SDS011;8029;52.202;7.308;2023-07-31T14:47:43;1.60;;;1.50;;
15858;SDS011;8029;52.202;7.308;2023-07-31T14:50:09;3.08;;;2.08;;
15858;SDS011;8029;52.202;7.308;2023-07-31T14:52:35;2.20;;;1.60;;
15858;SDS011;8029;52.202;7.308;2023-07-31T14:55:01;1.15;;;1.10;;
15858;SDS011;8029;52.202;7.308;2023-07-31T14:57:27;1.33;;;1.30;;
15858;SDS011;8029;52.202;7.308;2023-07-31T14:59:53;1.33;;;1.23;;
15858;SDS011;8029;52.202;7.308;2023-07-31T15:02:19;1.38;;;1.27;;
15858;SDS011;8029;52.202;7.308;2023-07-31T15:04:45;1.70;;;1.60;;